Aeroporto :
LOGIN :

Iscrizione | Disclaimer

   EN    FR    IT 

 










Sommario :    VFR   VFR Marginale   IFR   IFR Intensivo   IFR Molto Intensivo
Visibilità : 
Base nubi : 
>= 8 km
>= 3000ft
5 / 8 km
1000 / 3000 ft
1500m / 5 km
500 / 1000 ft
800 / 1500m
200 / 500 ft
< 800m
< 200 ft
Simboli :   Temporali  Nebbia  Neve Forte  Precipitazioni Forti  Vento > 20 kt
SIGMETs :   Varie  Temporali  Ghiacco  Turbolenza  Onda orograficha  Ceneri Vulcaniche






- Altitudine del aeroporto : 84 ft


LFBC - Cazaux

ULTIMO METAR :
  • 150800Z AUTO 08005KT 9999 -RA FEW037/// SCT054/// OVC064/// ///CB 05/04 Q0998 TEMPO BKN005

METARs OBSOLETI :
  • 150730Z AUTO 05009KT 9999 RA OVC032/// ///CB 04/04 Q0998 TEMPO BKN005 BECMG 11010KT NSW
  • 150700Z AUTO 06011KT 9999 -RA OVC031/// ///CB 05/04 Q0997 TEMPO 3000 TSRA BKN005
  • 150630Z AUTO 07009KT 040V100 9999 -RA FEW017/// BKN026/// BKN032/// ///CB 05/04 Q0997
  • 150600Z AUTO 10010KT 9999 -RA BKN017/// BKN027/// OVC036/// ///CB 05/05 Q0997
  • 150530Z AUTO 10009KT 6000 RA FEW017/// OVC030/// ///CB 05/05 Q0997

TAF TAF LFBC
Valido dal 15 a 06 ore il 16 a 03 ore UTC


150631Z 1506/1603 11010KT 9999 SCT015 FEW018TCU BKN020
TEMPO 1506/1508 RA BKN015
PROB40
TEMPO 1506/1508 3000 TSRA SCT007 BKN015CB
TEMPO 1508/1511 BKN005
BECMG 1511/1513 04006KT SCT015 BKN030
BECMG 1601/1603 24010KT SCT030TCU BKN050
TEMPO 1602/1603 24015G30KT 3000 SHRA SCT015 BKN025TCU



MetMap, La meteo Aeronautica in un colpo d'occhio ! - Copyright ORBIFLY Dicembre 2007 - Disclaimer

ORBIFLY MET'MAP TEAM :

Programmazione e sviluppo : Alexandra Zaïnal
Concezione e sviluppo : Baudouin d'Aumeries
Co-Programmazione e sviluppo : Marc-Olivier Méhu
Supporto tecnico e logistico : Manuel Goepfert
Aiuto per la traduzione : Arnaldo La Scala

Contatto : metmap@orbifly.com




FONTI E CREDITI :

   NOAA